createdAt,value
2019-01-10T00:01:15.136Z,90.80
2019-01-10T00:05:20.572Z,90.80
2019-01-10T00:09:25.646Z,90.80
2019-01-10T00:13:30.900Z,90.80
2019-01-10T00:17:36.009Z,91.30
2019-01-10T00:21:40.925Z,91.70
2019-01-10T00:25:46.050Z,92.20
2019-01-10T00:29:51.265Z,92.50
2019-01-10T00:33:56.459Z,93.00
2019-01-10T00:38:01.400Z,92.80
2019-01-10T00:42:06.485Z,92.70
2019-01-10T00:46:11.560Z,92.70
2019-01-10T00:50:18.503Z,93.50
2019-01-10T00:54:23.596Z,94.00
2019-01-10T00:58:28.818Z,94.10
2019-01-10T01:02:33.926Z,94.50
2019-01-10T01:06:38.867Z,94.60
2019-01-10T01:10:43.883Z,94.20
2019-01-10T01:14:48.806Z,94.70
2019-01-10T01:18:53.721Z,94.60
2019-01-10T01:22:58.992Z,95.00
2019-01-10T01:27:04.003Z,95.00
2019-01-10T01:31:09.350Z,94.60
2019-01-10T01:35:14.695Z,94.70
2019-01-10T01:39:19.647Z,94.70
2019-01-10T01:43:24.549Z,94.60
2019-01-10T01:47:30.649Z,94.80
2019-01-10T01:51:35.865Z,95.20
2019-01-10T01:55:41.990Z,95.30
2019-01-10T01:59:46.868Z,95.60
2019-01-10T02:03:52.087Z,95.90
2019-01-10T02:07:57.287Z,95.60
2019-01-10T02:12:02.441Z,95.90
2019-01-10T02:16:07.453Z,96.10
2019-01-10T02:20:12.937Z,96.40
2019-01-10T02:24:18.017Z,95.80
2019-01-10T02:28:22.934Z,95.70
2019-01-10T02:32:27.861Z,95.50
2019-01-10T02:36:32.983Z,95.10
2019-01-10T02:40:38.133Z,95.00
2019-01-10T02:44:43.019Z,95.00
2019-01-10T02:48:48.167Z,94.50
2019-01-10T02:52:53.192Z,93.80
2019-01-10T02:56:59.354Z,93.30
2019-01-10T03:01:04.260Z,93.10
2019-01-10T03:05:09.633Z,93.10
2019-01-10T03:09:14.737Z,92.80
2019-01-10T03:13:19.780Z,92.50
2019-01-10T03:17:24.674Z,92.70
2019-01-10T03:21:29.723Z,92.80
2019-01-10T03:25:34.796Z,92.80
2019-01-10T03:29:39.724Z,93.30
2019-01-10T03:33:44.739Z,93.30
2019-01-10T03:37:49.655Z,93.10
2019-01-10T03:41:54.576Z,93.10
2019-01-10T03:46:01.719Z,93.10
2019-01-10T03:50:07.042Z,93.30
2019-01-10T03:54:11.965Z,93.10
2019-01-10T03:58:17.064Z,93.60
2019-01-10T04:02:22.019Z,93.50
2019-01-10T04:06:26.932Z,93.50
2019-01-10T04:10:32.137Z,93.90
2019-01-10T04:14:37.047Z,93.70
2019-01-10T04:18:42.015Z,93.70
2019-01-10T04:22:47.272Z,93.60
2019-01-10T04:26:52.183Z,93.60
2019-01-10T04:30:57.122Z,93.00
2019-01-10T04:35:02.554Z,93.00
2019-01-10T04:39:09.346Z,92.00
2019-01-10T04:43:14.261Z,92.40
2019-01-10T04:47:19.381Z,92.50
2019-01-10T04:51:24.292Z,92.70
2019-01-10T04:55:29.244Z,92.80
2019-01-10T04:59:34.331Z,93.20
2019-01-10T05:03:39.277Z,93.10
2019-01-10T05:07:44.310Z,93.00
2019-01-10T05:11:49.246Z,92.90
2019-01-10T05:15:54.309Z,93.00
2019-01-10T05:19:59.308Z,93.00
2019-01-10T05:24:04.229Z,93.20
2019-01-10T05:28:09.252Z,93.30
2019-01-10T05:32:14.208Z,93.50
2019-01-10T05:36:19.263Z,93.60
2019-01-10T05:40:24.209Z,93.80
2019-01-10T05:44:29.130Z,93.90
2019-01-10T05:48:34.241Z,93.80
2019-01-10T05:52:39.362Z,94.20
2019-01-10T05:56:44.509Z,94.70
2019-01-10T06:00:49.432Z,94.90
2019-01-10T06:04:54.487Z,94.90
2019-01-10T06:08:59.400Z,95.00
2019-01-10T06:13:04.425Z,94.90
2019-01-10T06:17:09.939Z,94.90
2019-01-10T06:21:14.852Z,94.90
2019-01-10T06:25:19.940Z,94.60
2019-01-10T06:29:25.098Z,94.30
2019-01-10T06:33:30.020Z,94.00
2019-01-10T06:37:35.142Z,93.90
2019-01-10T06:41:40.224Z,94.10
2019-01-10T06:45:46.692Z,93.90
2019-01-10T06:49:51.938Z,94.20
2019-01-10T06:53:56.847Z,93.80
2019-01-10T06:58:01.784Z,94.00
2019-01-10T07:02:07.188Z,93.50
2019-01-10T07:06:12.144Z,93.50
2019-01-10T07:10:25.214Z,93.60
2019-01-10T07:14:30.175Z,93.50
2019-01-10T07:18:35.280Z,93.20
2019-01-10T07:22:45.106Z,93.00
2019-01-10T07:26:50.021Z,93.20
2019-01-10T07:30:59.056Z,93.20
2019-01-10T07:35:10.483Z,93.00
2019-01-10T07:39:15.424Z,92.40
2019-01-10T07:43:23.502Z,92.20
2019-01-10T07:47:47.401Z,92.40
2019-01-10T07:51:52.473Z,91.50
2019-01-10T07:55:57.608Z,90.50
2019-01-10T08:00:02.548Z,89.30
2019-01-10T08:04:07.448Z,88.60
2019-01-10T08:08:14.313Z,88.20
2019-01-10T08:12:19.562Z,87.90
2019-01-10T08:16:24.705Z,87.30
2019-01-10T08:20:29.612Z,86.50
2019-01-10T08:24:34.556Z,86.90
2019-01-10T08:28:39.773Z,84.90
2019-01-10T08:32:44.816Z,84.70
2019-01-10T08:36:49.727Z,84.10
2019-01-10T08:40:54.868Z,82.00
2019-01-10T08:45:00.034Z,80.90
2019-01-10T08:49:05.124Z,79.20
2019-01-10T08:53:10.538Z,79.50
2019-01-10T08:57:15.851Z,78.70
2019-01-10T09:01:20.811Z,78.10
2019-01-10T09:05:25.868Z,77.60
2019-01-10T09:09:30.888Z,76.00
2019-01-10T09:13:35.883Z,76.20
2019-01-10T09:17:40.818Z,77.20
2019-01-10T09:21:45.833Z,76.50
2019-01-10T09:25:50.771Z,77.20
2019-01-10T09:29:55.896Z,77.60
2019-01-10T09:34:00.863Z,77.50
2019-01-10T09:38:06.108Z,76.90
2019-01-10T09:42:11.047Z,77.00
2019-01-10T09:46:15.992Z,78.60
2019-01-10T09:50:21.560Z,77.50
2019-01-10T09:54:26.611Z,78.70
2019-01-10T09:58:31.674Z,79.20
2019-01-10T10:02:36.600Z,77.80
2019-01-10T10:06:41.720Z,77.00
2019-01-10T10:10:46.652Z,77.00
2019-01-10T10:14:51.604Z,77.10
2019-01-10T10:18:56.624Z,77.10
2019-01-10T10:23:01.577Z,77.20
2019-01-10T10:27:06.494Z,76.10
2019-01-10T10:31:11.555Z,75.90
2019-01-10T10:35:16.808Z,75.00
2019-01-10T10:39:21.970Z,74.60
2019-01-10T10:43:26.893Z,73.60
2019-01-10T10:47:31.841Z,73.20
2019-01-10T10:51:36.967Z,74.00
2019-01-10T10:55:42.264Z,72.90
2019-01-10T10:59:47.223Z,72.80
2019-01-10T11:03:54.347Z,73.10
2019-01-10T11:07:59.314Z,70.00
2019-01-10T11:12:05.145Z,69.40
2019-01-10T11:16:10.734Z,69.90
2019-01-10T11:20:18.252Z,69.20
2019-01-10T11:24:23.353Z,69.50
2019-01-10T11:28:28.284Z,68.60
2019-01-10T11:32:33.346Z,67.30
2019-01-10T11:36:38.251Z,63.20
2019-01-10T11:40:43.232Z,64.30
2019-01-10T11:44:48.156Z,64.60
2019-01-10T11:48:53.307Z,66.40
2019-01-10T11:52:58.267Z,64.00
2019-01-10T11:57:03.184Z,63.40
2019-01-10T12:01:09.710Z,61.80
2019-01-10T12:05:14.941Z,62.00
2019-01-10T12:09:19.859Z,62.00
2019-01-10T12:13:24.803Z,61.20
2019-01-10T12:17:31.139Z,60.80
2019-01-10T12:21:36.117Z,60.40
2019-01-10T12:25:41.191Z,61.90
2019-01-10T12:29:46.125Z,62.10
2019-01-10T12:33:51.074Z,61.60
2019-01-10T12:37:56.307Z,61.30
2019-01-10T12:42:01.212Z,61.20
2019-01-10T12:46:06.360Z,62.30
2019-01-10T12:50:34.607Z,59.40
2019-01-10T12:54:39.516Z,58.60
2019-01-10T12:58:44.501Z,57.90
2019-01-10T13:02:49.537Z,56.20
2019-01-10T13:06:54.481Z,55.90
2019-01-10T13:10:59.603Z,55.90
2019-01-10T13:15:04.759Z,55.40
2019-01-10T13:19:09.700Z,54.60
2019-01-10T13:23:14.644Z,56.40
2019-01-10T13:27:20.428Z,54.60
2019-01-10T13:31:25.465Z,55.40
2019-01-10T13:35:30.577Z,54.20
2019-01-10T13:39:36.723Z,54.80
2019-01-10T13:43:41.725Z,55.10
2019-01-10T13:47:48.645Z,53.90
2019-01-10T13:51:54.579Z,55.90
2019-01-10T13:56:00.473Z,54.30
2019-01-10T14:00:09.217Z,55.00
2019-01-10T14:04:15.708Z,54.90
2019-01-10T14:08:21.312Z,54.70
2019-01-10T14:12:26.337Z,54.60
2019-01-10T14:16:31.868Z,54.30
2019-01-10T14:20:37.179Z,54.60
2019-01-10T14:24:42.089Z,55.20
2019-01-10T14:28:48.199Z,54.40
2019-01-10T14:32:53.234Z,54.80
2019-01-10T14:36:59.243Z,55.60
2019-01-10T14:41:04.250Z,56.40
2019-01-10T14:45:11.329Z,57.40
2019-01-10T14:49:16.393Z,58.60
2019-01-10T14:53:21.616Z,59.20
2019-01-10T14:57:26.657Z,58.30
2019-01-10T15:01:31.592Z,59.20
2019-01-10T15:05:36.717Z,62.70
2019-01-10T15:09:41.628Z,64.10
2019-01-10T15:13:46.597Z,65.40
2019-01-10T15:17:52.785Z,65.30
2019-01-10T15:21:59.005Z,68.40
2019-01-10T15:26:04.181Z,68.80
2019-01-10T15:30:13.606Z,69.10
2019-01-10T15:34:18.547Z,69.80
2019-01-10T15:38:23.615Z,71.10
2019-01-10T15:42:28.566Z,71.50
2019-01-10T15:46:34.661Z,71.30
2019-01-10T15:50:39.612Z,70.00
2019-01-10T15:54:44.519Z,67.40
2019-01-10T15:58:49.478Z,65.10
2019-01-10T16:02:54.719Z,64.70
2019-01-10T16:06:59.658Z,62.30
2019-01-10T16:11:04.591Z,59.70
2019-01-10T16:15:11.365Z,57.50
2019-01-10T16:19:16.313Z,56.40
2019-01-10T16:23:22.289Z,55.90
2019-01-10T16:27:27.205Z,55.80
2019-01-10T16:31:32.436Z,55.80
2019-01-10T16:35:37.457Z,55.70
2019-01-10T16:39:42.400Z,56.00
2019-01-10T16:43:47.324Z,56.20
2019-01-10T16:47:52.255Z,56.00
2019-01-10T16:51:57.295Z,55.60
2019-01-10T16:56:02.187Z,56.80
2019-01-10T17:00:10.711Z,56.90
2019-01-10T17:04:15.761Z,58.00
2019-01-10T17:08:20.681Z,57.60
2019-01-10T17:12:25.730Z,58.70
2019-01-10T17:16:30.761Z,59.70
2019-01-10T17:20:35.703Z,59.60
2019-01-10T17:24:40.643Z,59.40
2019-01-10T17:28:45.791Z,59.50
2019-01-10T17:32:50.811Z,58.30
2019-01-10T17:36:56.013Z,58.30
2019-01-10T17:41:04.480Z,58.30
2019-01-10T17:45:13.892Z,56.70
2019-01-10T17:49:17.760Z,57.20
2019-01-10T17:53:22.729Z,57.20
2019-01-10T17:57:27.689Z,56.20
2019-01-10T18:01:32.636Z,56.90
2019-01-10T18:05:37.653Z,56.80
2019-01-10T18:09:42.720Z,57.10
2019-01-10T18:13:47.650Z,57.90
2019-01-10T18:17:52.598Z,58.00
2019-01-10T18:21:57.682Z,58.00
2019-01-10T18:26:02.620Z,58.40
2019-01-10T18:30:11.050Z,62.00
2019-01-10T18:34:16.200Z,61.60
2019-01-10T18:38:21.144Z,61.70
2019-01-10T18:42:26.288Z,62.20
2019-01-10T18:46:31.317Z,64.80
2019-01-10T18:50:36.234Z,64.70
2019-01-10T18:54:41.200Z,66.10
2019-01-10T18:58:46.686Z,67.40
2019-01-10T19:02:51.733Z,67.40
2019-01-10T19:06:56.755Z,66.60
2019-01-10T19:11:02.046Z,65.50
2019-01-10T19:15:07.527Z,63.00
2019-01-10T19:19:19.025Z,62.70
2019-01-10T19:23:24.295Z,62.80
2019-01-10T19:27:29.470Z,62.90
2019-01-10T19:31:34.518Z,62.40
2019-01-10T19:35:39.584Z,63.20
2019-01-10T19:39:44.737Z,62.50
2019-01-10T19:43:53.167Z,62.50
2019-01-10T19:47:58.859Z,63.60
2019-01-10T19:52:04.059Z,61.90
2019-01-10T19:56:09.088Z,62.10
2019-01-10T20:00:26.639Z,64.60
2019-01-10T20:04:31.976Z,64.70
2019-01-10T20:08:37.035Z,63.10
2019-01-10T20:12:43.189Z,64.20
2019-01-10T20:16:48.114Z,65.10
2019-01-10T20:20:53.076Z,62.80
2019-01-10T20:25:00.177Z,64.50
2019-01-10T20:29:05.463Z,63.80
2019-01-10T20:33:10.803Z,63.80
2019-01-10T20:37:15.834Z,62.60
2019-01-10T20:41:20.803Z,62.80
2019-01-10T20:45:26.092Z,62.70
2019-01-10T20:49:31.227Z,61.70
2019-01-10T20:53:38.077Z,64.00
2019-01-10T20:57:43.214Z,62.60
2019-01-10T21:01:48.182Z,63.90
2019-01-10T21:05:53.137Z,64.00
2019-01-10T21:09:58.552Z,64.40
2019-01-10T21:14:03.492Z,65.50
2019-01-10T21:18:08.604Z,65.60
2019-01-10T21:22:13.709Z,66.80
2019-01-10T21:26:18.865Z,64.80
2019-01-10T21:30:24.325Z,64.70
2019-01-10T21:34:30.303Z,64.50
2019-01-10T21:38:35.348Z,66.70
2019-01-10T21:42:40.440Z,66.30
2019-01-10T21:46:45.977Z,67.30
2019-01-10T21:50:51.146Z,68.00
2019-01-10T21:54:56.126Z,68.40
2019-01-10T21:59:01.259Z,67.50
2019-01-10T22:03:06.427Z,68.30
2019-01-10T22:07:11.935Z,69.70
2019-01-10T22:11:17.032Z,68.70
2019-01-10T22:15:22.091Z,69.70
2019-01-10T22:19:28.781Z,70.00
2019-01-10T22:23:35.607Z,70.30
2019-01-10T22:27:40.566Z,70.30
2019-01-10T22:31:45.668Z,71.70
2019-01-10T22:35:50.709Z,72.70
2019-01-10T22:39:55.701Z,72.00
2019-01-10T22:44:00.948Z,73.00
2019-01-10T22:48:08.197Z,73.90
2019-01-10T22:52:13.126Z,73.40
2019-01-10T22:56:18.275Z,65.20
2019-01-10T23:01:13.460Z,62.00
2019-01-10T23:05:18.984Z,61.30
2019-01-10T23:09:24.015Z,59.30
2019-01-10T23:13:29.116Z,59.10
2019-01-10T23:17:51.184Z,60.40
2019-01-10T23:21:57.969Z,60.30
2019-01-10T23:26:03.023Z,59.70
2019-01-10T23:30:08.625Z,58.30
2019-01-10T23:34:13.564Z,58.90
2019-01-10T23:38:23.306Z,59.50
2019-01-10T23:42:28.425Z,58.90
2019-01-10T23:46:33.472Z,58.60
2019-01-10T23:50:38.680Z,56.90
2019-01-10T23:54:43.727Z,57.50
2019-01-10T23:58:48.847Z,57.20
